Time;durP1;ratioP1;P1;durP2;ratioP2;P2;SDS_P1;SDS_P2;PMS_P1;PMS_P2;Temp;Humidity;BMP_temperature;BMP_pressure;BME280_temperature;BME280_humidity;BME280_pressure;Samples;Min_cycle;Max_cycle;Signal;HPM_P1;HPM_P2
2022/05/13 00:01:47;;;;;;;5.97;2.00;;;11.10;99.90;;;;;;4994277;28;20167;-46
2022/05/13 00:04:12;;;;;;;3.33;2.33;;;11.10;99.90;;;;;;4994307;28;20261;-46
2022/05/13 00:06:38;;;;;;;4.53;1.67;;;11.00;99.90;;;;;;4994427;28;20182;-46
2022/05/13 00:09:04;;;;;;;4.70;1.80;;;11.00;99.90;;;;;;4994200;28;20653;-46
2022/05/13 00:11:30;;;;;;;4.70;1.90;;;10.90;99.90;;;;;;4994115;28;20182;-46
2022/05/13 00:13:56;;;;;;;3.17;1.63;;;10.90;99.90;;;;;;4994128;28;20185;-45
2022/05/13 00:16:22;;;;;;;5.13;1.90;;;10.80;99.90;;;;;;4994092;28;20769;-45
2022/05/13 00:18:47;;;;;;;6.77;2.13;;;10.80;99.90;;;;;;4993847;28;20210;-45
2022/05/13 00:21:13;;;;;;;2.63;1.90;;;10.70;99.90;;;;;;4994069;28;20669;-46
2022/05/13 00:23:39;;;;;;;5.83;2.50;;;10.70;99.90;;;;;;4993975;28;20677;-46
2022/05/13 00:26:04;;;;;;;6.70;2.40;;;10.70;99.90;;;;;;4992946;28;20182;-46
2022/05/13 00:28:30;;;;;;;7.13;2.60;;;10.60;99.90;;;;;;4994039;28;20338;-45
2022/05/13 00:30:59;;;;;;;4.80;2.37;;;10.60;99.90;;;;;;4992723;28;20261;-45
2022/05/13 00:33:25;;;;;;;3.80;2.20;;;10.50;99.90;;;;;;4994161;28;20256;-44
2022/05/13 00:35:51;;;;;;;5.77;2.27;;;10.50;99.90;;;;;;4994042;28;20244;-45
2022/05/13 00:38:17;;;;;;;4.67;2.50;;;10.40;99.90;;;;;;4994233;28;20213;-45
2022/05/13 00:40:44;;;;;;;4.83;2.10;;;10.40;99.90;;;;;;4993847;28;20263;-40
2022/05/13 00:43:13;;;;;;;4.20;2.57;;;10.30;99.90;;;;;;4994254;28;20184;-38
2022/05/13 00:45:39;;;;;;;2.87;1.90;;;10.30;99.90;;;;;;4994170;28;20536;-39
2022/05/13 00:48:05;;;;;;;3.10;2.23;;;10.20;99.90;;;;;;4993969;28;20786;-39
2022/05/13 00:50:34;;;;;;;3.90;2.50;;;10.20;99.90;;;;;;4993922;28;20274;-41
2022/05/13 00:53:00;;;;;;;5.23;2.37;;;10.20;99.90;;;;;;4993653;28;20185;-40
2022/05/13 00:55:38;;;;;;;3.73;2.37;;;10.10;99.90;;;;;;4993857;28;20229;-41
2022/05/13 00:58:07;;;;;;;7.30;2.70;;;10.00;99.90;;;;;;4993821;28;20296;-40
2022/05/13 01:00:34;;;;;;;4.73;2.10;;;10.00;99.90;;;;;;4998531;28;20176;-38
2022/05/13 01:03:00;;;;;;;5.63;2.27;;;10.00;99.90;;;;;;4998822;28;20239;-37
2022/05/13 01:05:26;;;;;;;5.43;2.37;;;9.90;99.90;;;;;;4997891;28;20184;-39
2022/05/13 01:07:52;;;;;;;6.50;2.10;;;9.90;99.90;;;;;;4997720;28;20836;-38
2022/05/13 01:10:25;;;;;;;2.20;1.93;;;9.90;99.90;;;;;;4997868;28;20185;-39
2022/05/13 01:12:59;;;;;;;5.53;2.50;;;9.80;99.90;;;;;;4997632;28;20185;-38
2022/05/13 01:15:43;;;;;;;6.13;2.53;;;9.80;99.90;;;;;;4996140;28;20181;-38
2022/05/13 01:18:10;;;;;;;5.23;2.23;;;9.80;99.90;;;;;;4996046;28;20218;-39
2022/05/13 01:20:48;;;;;;;5.87;3.27;;;9.80;99.90;;;;;;4997748;28;20193;-39
2022/05/13 01:23:20;;;;;;;5.30;2.50;;;9.80;99.90;;;;;;4997445;28;20672;-38
2022/05/13 01:25:53;;;;;;;7.50;4.30;;;9.80;99.90;;;;;;4997722;28;20626;-38
2022/05/13 01:28:23;;;;;;;15.93;10.63;;;9.70;99.90;;;;;;4997582;28;20205;-39
2022/05/13 01:30:52;;;;;;;7.23;3.87;;;9.70;99.90;;;;;;4997642;28;20189;-38
2022/05/13 01:33:19;;;;;;;6.53;2.83;;;9.70;99.90;;;;;;4997585;28;20202;-38
2022/05/13 01:35:47;;;;;;;7.77;5.10;;;9.70;99.90;;;;;;4999733;28;20193;-38
2022/05/13 01:38:14;;;;;;;5.20;2.10;;;9.70;99.90;;;;;;5000355;28;20719;-39
2022/05/13 01:40:40;;;;;;;3.30;1.80;;;9.70;99.90;;;;;;5001979;28;20177;-39
2022/05/13 01:43:07;;;;;;;3.40;1.97;;;9.60;99.90;;;;;;5000130;28;20593;-38
2022/05/13 01:45:34;;;;;;;4.87;1.43;;;9.50;99.90;;;;;;4995662;28;20276;-39
2022/05/13 01:48:00;;;;;;;3.37;1.40;;;9.50;99.90;;;;;;4996989;28;20729;-38
2022/05/13 01:50:26;;;;;;;5.27;1.30;;;9.60;99.90;;;;;;4995738;28;20197;-46
2022/05/13 01:52:53;;;;;;;3.00;1.47;;;9.60;99.90;;;;;;4996889;28;20606;-46
2022/05/13 01:55:19;;;;;;;4.13;1.83;;;9.60;99.90;;;;;;4996391;28;20184;-44
2022/05/13 01:57:45;;;;;;;4.80;1.30;;;9.70;99.90;;;;;;4997252;28;20237;-44
2022/05/13 02:00:11;;;;;;;4.93;1.27;;;9.70;99.90;;;;;;4996735;28;20180;-46
2022/05/13 02:05:21;;;;;;;5.53;1.13;;;9.90;99.90;;;;;;4996661;28;20214;-46
2022/05/13 02:07:47;;;;;;;3.10;1.03;;;10.00;99.90;;;;;;4996497;28;20294;-45
2022/05/13 02:10:13;;;;;;;4.07;1.10;;;10.10;99.90;;;;;;4996362;28;20259;-44
2022/05/13 02:12:38;;;;;;;4.23;1.67;;;10.10;99.90;;;;;;4995555;28;20188;-45
2022/05/13 02:15:05;;;;;;;2.43;1.23;;;10.10;99.90;;;;;;4996699;28;20248;-44
2022/05/13 02:17:31;;;;;;;4.27;1.37;;;10.10;99.90;;;;;;4996050;28;20234;-43
2022/05/13 02:19:57;;;;;;;3.13;1.50;;;10.10;99.90;;;;;;4996050;28;20253;-45
2022/05/13 02:22:22;;;;;;;3.77;0.97;;;10.10;99.90;;;;;;4996234;28;20704;-45
2022/05/13 02:24:48;;;;;;;3.20;1.20;;;10.20;99.90;;;;;;4996320;28;20666;-44
2022/05/13 02:27:13;;;;;;;3.53;1.20;;;10.20;99.90;;;;;;4996111;28;20229;-45
2022/05/13 02:29:39;;;;;;;4.67;1.23;;;10.20;99.90;;;;;;4996162;28;20206;-44
2022/05/13 02:32:05;;;;;;;4.53;1.00;;;10.20;99.90;;;;;;4994650;28;20651;-45
2022/05/13 02:34:31;;;;;;;4.20;1.27;;;10.30;99.90;;;;;;4995997;28;20245;-44
2022/05/13 02:36:57;;;;;;;5.13;1.33;;;10.30;99.90;;;;;;4996007;28;20604;-46
2022/05/13 02:39:23;;;;;;;4.30;1.27;;;10.20;99.90;;;;;;4994426;28;20588;-44
2022/05/13 02:41:49;;;;;;;2.30;1.10;;;10.20;99.90;;;;;;4994443;28;20179;-40
2022/05/13 02:44:14;;;;;;;5.10;1.20;;;10.20;99.90;;;;;;4996100;28;20183;-39
2022/05/13 02:46:41;;;;;;;3.43;1.33;;;10.20;99.90;;;;;;4995794;28;20565;-42
2022/05/13 02:49:07;;;;;;;5.73;1.17;;;10.10;99.90;;;;;;4995811;28;20607;-42
2022/05/13 02:51:33;;;;;;;6.77;1.20;;;10.00;99.90;;;;;;4995932;28;20210;-41
2022/05/13 02:53:58;;;;;;;6.63;1.27;;;10.00;99.90;;;;;;4995810;28;20234;-39
2022/05/13 02:56:25;;;;;;;1.80;0.70;;;9.90;99.90;;;;;;4996231;28;20206;-42
2022/05/13 02:58:51;;;;;;;11.50;1.30;;;9.90;99.90;;;;;;5000825;28;20772;-42
2022/05/13 03:01:18;;;;;;;2.20;0.97;;;9.80;99.90;;;;;;5002089;28;20180;-43
2022/05/13 03:03:46;;;;;;;3.90;1.03;;;9.70;99.90;;;;;;5001003;28;20589;-44
2022/05/13 03:06:12;;;;;;;4.80;1.07;;;9.70;99.90;;;;;;4997559;28;20183;-42
2022/05/13 03:08:38;;;;;;;3.80;1.00;;;9.60;99.90;;;;;;4995370;28;20207;-43
2022/05/13 03:11:06;;;;;;;3.50;1.10;;;9.70;99.90;;;;;;4995280;28;20266;-42
2022/05/13 03:13:33;;;;;;;4.17;1.33;;;9.60;99.90;;;;;;4995493;28;20192;-43
2022/05/13 03:16:07;;;;;;;2.70;1.00;;;9.50;99.90;;;;;;4995210;28;20178;-37
2022/05/13 03:18:33;;;;;;;4.23;0.93;;;9.50;99.90;;;;;;4994965;28;20230;-39
2022/05/13 03:20:58;;;;;;;6.23;1.07;;;9.50;99.90;;;;;;4994957;28;20633;-39
2022/05/13 03:23:24;;;;;;;3.97;1.07;;;9.50;99.90;;;;;;4994206;28;20188;-39
2022/05/13 03:25:50;;;;;;;5.77;1.50;;;9.40;99.90;;;;;;4994979;28;20713;-39
2022/05/13 03:28:15;;;;;;;3.33;1.20;;;9.40;99.90;;;;;;4994901;28;20199;-38
2022/05/13 03:30:43;;;;;;;6.87;1.30;;;9.40;99.90;;;;;;4995149;28;20202;-38
2022/05/13 03:33:09;;;;;;;4.73;1.37;;;9.40;99.90;;;;;;4994895;28;20176;-40
2022/05/13 03:35:35;;;;;;;5.70;1.10;;;9.40;99.90;;;;;;4994781;28;20194;-37
2022/05/13 03:38:00;;;;;;;4.10;1.13;;;9.40;99.90;;;;;;4994830;28;20216;-41
2022/05/13 03:40:26;;;;;;;3.93;1.20;;;9.40;99.90;;;;;;4994601;28;20237;-39
2022/05/13 03:42:51;;;;;;;3.03;1.20;;;9.40;99.90;;;;;;4995028;28;20253;-37
2022/05/13 03:45:18;;;;;;;5.53;1.33;;;9.40;99.90;;;;;;4994989;28;20559;-38
2022/05/13 03:47:44;;;;;;;4.40;1.43;;;9.40;99.90;;;;;;4993545;28;20566;-38
2022/05/13 03:50:11;;;;;;;4.43;1.33;;;9.40;99.90;;;;;;4994664;28;20194;-39
2022/05/13 03:52:37;;;;;;;4.07;1.10;;;9.40;99.90;;;;;;4994561;28;20182;-38
2022/05/13 03:55:06;;;;;;;5.60;1.30;;;9.40;99.90;;;;;;4994323;28;20665;-39
2022/05/13 03:57:32;;;;;;;4.17;1.40;;;9.40;99.90;;;;;;4995257;28;20540;-38
2022/05/13 03:59:58;;;;;;;5.43;1.37;;;9.50;99.90;;;;;;4994581;28;20545;-39
2022/05/13 04:02:25;;;;;;;5.23;1.40;;;9.40;99.90;;;;;;4994653;28;20177;-41
2022/05/13 04:10:19;;;;;;;4.50;1.40;;;9.50;99.90;;;;;;4994295;28;20595;-39
2022/05/13 04:18:12;;;;;;;5.93;1.60;;;9.60;99.90;;;;;;4994233;28;20209;-40
2022/05/13 04:20:38;;;;;;;6.87;1.80;;;9.70;99.90;;;;;;4994182;28;20171;-40
2022/05/13 04:23:04;;;;;;;9.63;1.80;;;9.70;99.90;;;;;;4994108;28;20179;-40
2022/05/13 04:25:30;;;;;;;3.27;1.40;;;9.70;99.90;;;;;;4994100;28;20224;-39
2022/05/13 04:27:56;;;;;;;5.77;1.57;;;9.70;99.90;;;;;;4993990;28;20199;-38
2022/05/13 04:30:21;;;;;;;7.27;1.70;;;9.70;99.90;;;;;;4994122;28;20758;-39
2022/05/13 04:32:47;;;;;;;7.23;2.17;;;9.70;99.90;;;;;;4994180;28;20568;-41
2022/05/13 04:35:12;;;;;;;6.20;1.67;;;9.70;99.90;;;;;;4996530;28;20243;-39
2022/05/13 04:37:38;;;;;;;6.23;1.80;;;9.80;99.90;;;;;;4998031;28;20549;-39
2022/05/13 04:40:05;;;;;;;4.90;1.70;;;9.80;99.90;;;;;;4997346;28;20592;-38
2022/05/13 04:45:26;;;;;;;7.87;1.57;;;9.80;99.90;;;;;;4999628;28;20173;-39
2022/05/13 04:50:39;;;;;;;8.33;1.83;;;9.90;99.90;;;;;;4998092;28;20277;-41
2022/05/13 04:53:06;;;;;;;8.13;1.80;;;9.90;99.90;;;;;;4997968;28;20755;-40
2022/05/13 04:55:32;;;;;;;5.63;1.60;;;10.00;99.90;;;;;;4998082;28;20584;-38
2022/05/13 04:57:58;;;;;;;4.00;1.57;;;10.00;99.90;;;;;;4997553;28;20208;-40
2022/05/13 05:00:24;;;;;;;6.50;1.50;;;10.10;99.90;;;;;;4998232;28;20179;-43
2022/05/13 05:02:49;;;;;;;9.13;1.80;;;10.10;99.90;;;;;;4998122;28;20209;-43
2022/05/13 05:05:15;;;;;;;8.50;1.80;;;10.10;99.90;;;;;;4997924;28;20257;-42
2022/05/13 05:07:41;;;;;;;5.10;1.50;;;10.10;99.90;;;;;;4998449;28;20568;-42
2022/05/13 05:10:07;;;;;;;4.93;1.87;;;10.20;99.90;;;;;;4997698;28;20189;-41
2022/05/13 05:12:33;;;;;;;5.87;1.47;;;10.20;99.90;;;;;;4997659;28;20630;-43
2022/05/13 05:14:58;;;;;;;6.30;1.90;;;10.30;99.90;;;;;;4979919;28;20194;-42
2022/05/13 05:17:24;;;;;;;5.87;1.83;;;10.40;99.90;;;;;;4997584;28;20353;-42
2022/05/13 05:19:49;;;;;;;4.90;1.50;;;10.40;99.90;;;;;;4997445;28;20204;-43
2022/05/13 05:22:15;;;;;;;3.57;1.40;;;10.50;99.90;;;;;;4997552;28;20210;-42
2022/05/13 05:24:41;;;;;;;4.30;1.60;;;10.60;99.90;;;;;;4997053;28;20193;-42
2022/05/13 05:27:09;;;;;;;5.70;1.47;;;10.80;99.90;;;;;;4997188;28;20278;-43
2022/05/13 05:29:36;;;;;;;7.13;1.80;;;10.80;99.90;;;;;;4997362;28;20243;-41
2022/05/13 05:32:02;;;;;;;7.20;1.90;;;11.00;99.90;;;;;;4997186;28;20182;-43
2022/05/13 05:34:28;;;;;;;13.30;1.63;;;11.10;99.90;;;;;;4997044;28;20541;-43
2022/05/13 05:36:54;;;;;;;6.00;2.27;;;11.10;99.90;;;;;;4997014;28;20213;-43
2022/05/13 05:39:20;;;;;;;5.33;1.70;;;11.10;99.90;;;;;;4998924;28;20173;-40
2022/05/13 05:41:45;;;;;;;8.27;2.03;;;11.20;99.90;;;;;;4996953;28;20171;-43
2022/05/13 05:44:11;;;;;;;6.23;2.57;;;11.20;99.90;;;;;;4996750;28;20179;-43
2022/05/13 05:46:37;;;;;;;5.90;1.57;;;11.20;99.90;;;;;;4995494;28;20184;-42
2022/05/13 05:49:04;;;;;;;3.77;1.80;;;11.30;99.90;;;;;;4995431;28;20206;-43
2022/05/13 05:51:30;;;;;;;5.40;1.63;;;11.30;99.90;;;;;;4995472;28;20215;-43
2022/05/13 05:59:24;;;;;;;4.03;1.63;;;11.50;99.90;;;;;;4996944;28;20171;-41
2022/05/13 06:01:51;;;;;;;6.07;1.77;;;11.60;99.90;;;;;;4997444;28;20537;-42
2022/05/13 06:04:17;;;;;;;5.47;1.77;;;11.70;99.90;;;;;;4997615;28;20721;-41
2022/05/13 06:06:43;;;;;;;8.80;1.90;;;11.80;99.90;;;;;;4996756;28;20204;-42
2022/05/13 06:09:09;;;;;;;8.80;2.00;;;11.90;99.90;;;;;;4996444;28;20521;-45
2022/05/13 06:11:37;;;;;;;7.90;1.97;;;12.00;99.90;;;;;;4996544;28;20187;-43
2022/05/13 06:14:03;;;;;;;6.13;1.80;;;12.20;99.90;;;;;;4996603;28;20215;-41
2022/05/13 06:16:30;;;;;;;6.00;1.70;;;12.30;99.90;;;;;;4996487;28;20199;-42
2022/05/13 06:19:02;;;;;;;4.73;1.60;;;12.50;99.90;;;;;;4996229;28;20310;-42
2022/05/13 06:21:30;;;;;;;5.67;1.50;;;12.70;99.90;;;;;;4997416;28;20551;-44
2022/05/13 06:23:55;;;;;;;6.47;1.60;;;12.90;99.90;;;;;;4995068;28;20192;-43
2022/05/13 06:26:21;;;;;;;3.50;1.23;;;13.00;99.90;;;;;;4996355;28;20181;-44
2022/05/13 06:28:47;;;;;;;2.87;1.30;;;13.10;99.90;;;;;;4996371;28;20213;-43
2022/05/13 06:31:13;;;;;;;6.53;1.73;;;13.20;99.90;;;;;;4994732;28;20177;-42
2022/05/13 06:33:40;;;;;;;4.17;1.60;;;13.30;99.90;;;;;;4995171;28;20236;-42
2022/05/13 06:36:06;;;;;;;3.43;1.97;;;13.40;99.90;;;;;;4996036;28;20201;-43
2022/05/13 06:38:31;;;;;;;3.70;1.70;;;13.40;99.90;;;;;;4996062;28;20686;-43
2022/05/13 06:40:57;;;;;;;6.77;1.33;;;13.40;99.90;;;;;;4995761;28;20235;-42
2022/05/13 06:43:23;;;;;;;6.60;1.73;;;13.50;99.90;;;;;;4996241;28;20206;-43
2022/05/13 06:45:49;;;;;;;6.97;1.90;;;13.50;99.90;;;;;;4995617;28;20187;-45
2022/05/13 06:48:15;;;;;;;7.20;1.70;;;13.50;99.90;;;;;;4995713;28;20199;-43
2022/05/13 06:50:44;;;;;;;3.83;1.40;;;13.60;99.90;;;;;;4995955;28;20654;-43
2022/05/13 06:53:10;;;;;;;12.43;1.70;;;13.70;99.90;;;;;;4996038;28;20202;-43
2022/05/13 06:55:36;;;;;;;6.17;1.67;;;13.80;99.90;;;;;;4995789;28;20571;-44
2022/05/13 06:58:02;;;;;;;7.27;1.67;;;14.00;99.90;;;;;;4996208;28;20214;-43
2022/05/13 07:00:27;;;;;;;9.20;2.00;;;14.20;99.90;;;;;;4995912;28;20235;-44
2022/05/13 07:02:53;;;;;;;6.07;1.70;;;14.40;99.90;;;;;;4995599;28;20713;-43
2022/05/13 07:05:20;;;;;;;7.77;1.83;;;14.70;99.90;;;;;;4996296;28;20182;-43
2022/05/13 07:07:46;;;;;;;5.37;1.77;;;14.90;99.90;;;;;;4996122;28;20196;-43
2022/05/13 07:10:12;;;;;;;8.23;1.77;;;15.30;99.90;;;;;;4996728;28;20244;-42
2022/05/13 07:12:38;;;;;;;7.90;2.03;;;15.60;99.90;;;;;;4996267;28;20241;-45
2022/05/13 07:15:07;;;;;;;5.70;1.60;;;15.80;99.90;;;;;;4995839;28;20236;-43
2022/05/13 07:17:33;;;;;;;6.83;1.50;;;15.90;99.90;;;;;;4996189;28;20221;-45
2022/05/13 07:19:58;;;;;;;6.30;1.40;;;16.00;99.90;;;;;;4998797;28;20178;-44
2022/05/13 07:22:24;;;;;;;5.67;1.60;;;16.00;99.90;;;;;;4997074;28;20253;-44
2022/05/13 07:24:53;;;;;;;8.97;2.00;;;16.00;99.90;;;;;;4997169;28;20253;-43
2022/05/13 07:27:19;;;;;;;8.07;2.00;;;16.10;99.90;;;;;;4997096;28;20210;-44
2022/05/13 07:29:44;;;;;;;5.73;1.30;;;16.00;99.90;;;;;;4996724;28;20179;-44
2022/05/13 07:32:10;;;;;;;10.77;2.00;;;16.00;99.90;;;;;;4995495;28;20186;-44
2022/05/13 07:34:36;;;;;;;4.70;1.70;;;16.00;99.90;;;;;;4994897;28;20193;-39
2022/05/13 07:37:02;;;;;;;4.47;1.63;;;16.00;99.90;;;;;;4995146;28;20206;-40
2022/05/13 07:42:12;;;;;;;4.70;1.63;;;16.00;99.90;;;;;;4995382;28;20225;-41
2022/05/13 07:44:38;;;;;;;5.20;1.40;;;16.00;99.90;;;;;;4993648;28;20171;-41
2022/05/13 07:47:06;;;;;;;5.67;1.57;;;16.10;99.90;;;;;;4995000;28;20208;-40
2022/05/13 07:49:34;;;;;;;6.07;1.40;;;16.20;99.90;;;;;;4994556;28;20189;-41
2022/05/13 07:51:59;;;;;;;6.47;1.43;;;16.20;99.90;;;;;;4994796;28;20178;-41
2022/05/13 07:54:25;;;;;;;6.23;1.70;;;16.20;99.90;;;;;;4994712;28;20175;-40
2022/05/13 07:56:51;;;;;;;6.13;1.77;;;16.20;99.90;;;;;;4994210;28;20210;-39
2022/05/13 07:59:17;;;;;;;5.60;2.07;;;16.20;99.90;;;;;;4994474;28;20202;-39
2022/05/13 08:01:42;;;;;;;3.93;1.50;;;16.30;99.90;;;;;;4994256;28;20224;-41
2022/05/13 08:04:08;;;;;;;7.53;1.53;;;16.30;99.90;;;;;;4994375;28;20193;-39
2022/05/13 08:06:33;;;;;;;5.17;1.63;;;16.30;99.90;;;;;;4994489;28;20253;-40
2022/05/13 08:08:59;;;;;;;8.43;2.03;;;16.30;99.90;;;;;;4993884;28;20205;-41
2022/05/13 08:11:31;;;;;;;7.63;2.40;;;16.40;99.90;;;;;;4994073;28;20202;-39
2022/05/13 08:13:57;;;;;;;4.50;1.80;;;16.50;99.90;;;;;;4994313;28;20159;-40
2022/05/13 08:16:26;;;;;;;3.80;1.97;;;16.60;99.90;;;;;;4994109;28;20182;-41
2022/05/13 08:18:53;;;;;;;3.73;1.50;;;16.70;99.90;;;;;;4993990;28;20253;-42
2022/05/13 08:21:20;;;;;;;5.73;1.93;;;16.80;99.90;;;;;;4993933;28;20717;-41
2022/05/13 08:23:46;;;;;;;5.03;1.80;;;16.90;99.90;;;;;;4992634;28;20596;-40
2022/05/13 08:26:12;;;;;;;5.73;2.07;;;17.00;99.90;;;;;;4994017;28;20654;-39
2022/05/13 08:28:39;;;;;;;6.23;1.90;;;16.90;99.90;;;;;;4993931;28;20679;-40
2022/05/13 08:31:05;;;;;;;6.17;2.20;;;17.00;99.90;;;;;;4993889;28;20178;-39
2022/05/13 08:33:31;;;;;;;5.70;2.20;;;17.10;99.90;;;;;;4994125;28;20186;-39
2022/05/13 08:35:59;;;;;;;4.80;1.47;;;17.30;99.90;;;;;;4994170;28;20252;-40
2022/05/13 08:38:28;;;;;;;8.63;2.10;;;17.40;99.90;;;;;;4994290;28;20662;-42
2022/05/13 08:41:09;;;;;;;4.20;1.40;;;17.40;99.90;;;;;;4993911;28;20171;-39
2022/05/13 08:43:45;;;;;;;3.27;1.93;;;17.50;99.90;;;;;;4994097;28;20202;-39
2022/05/13 08:46:16;;;;;;;8.93;2.10;;;17.60;99.90;;;;;;4994098;28;20260;-39
2022/05/13 08:48:47;;;;;;;5.70;1.77;;;17.60;99.90;;;;;;4993666;28;20198;-41
2022/05/13 08:51:18;;;;;;;6.20;1.60;;;17.70;99.90;;;;;;4994022;28;20224;-39
2022/05/13 08:53:57;;;;;;;6.73;1.97;;;17.80;99.90;;;;;;4994170;28;20174;-40
2022/05/13 08:56:27;;;;;;;5.97;1.80;;;17.90;99.90;;;;;;4993683;28;20198;-41
2022/05/13 08:59:10;;;;;;;4.67;1.53;;;17.90;99.90;;;;;;4992252;28;20222;-40
2022/05/13 09:01:42;;;;;;;7.63;2.43;;;18.00;99.90;;;;;;4992544;28;20179;-42
2022/05/13 09:04:20;;;;;;;4.93;1.97;;;18.10;99.90;;;;;;4993773;28;20170;-43
2022/05/13 09:06:54;;;;;;;4.87;1.60;;;18.10;99.90;;;;;;4994010;28;20167;-45
2022/05/13 09:09:20;;;;;;;6.83;2.00;;;18.20;99.90;;;;;;4993717;28;20520;-44
2022/05/13 09:12:00;;;;;;;4.77;1.90;;;18.20;99.90;;;;;;4993429;28;20193;-47
2022/05/13 09:14:47;;;;;;;3.57;1.30;;;18.20;99.90;;;;;;4994010;28;20217;-46
2022/05/13 09:17:27;;;;;;;3.97;1.30;;;18.30;99.90;;;;;;4994378;28;20237;-46
2022/05/13 09:20:00;;;;;;;3.60;1.23;;;18.30;99.90;;;;;;4994006;28;20705;-45
2022/05/13 09:22:54;;;;;;;6.50;1.80;;;18.30;99.90;;;;;;4997593;28;20265;-46
2022/05/13 09:25:30;;;;;;;4.47;1.50;;;18.50;99.90;;;;;;4996395;28;20186;-45
2022/05/13 09:28:05;;;;;;;5.90;1.70;;;18.50;99.90;;;;;;4997303;28;20563;-46
2022/05/13 09:30:37;;;;;;;5.50;1.90;;;18.60;99.90;;;;;;4997146;28;20551;-45
2022/05/13 09:33:22;;;;;;;5.07;1.50;;;18.60;99.90;;;;;;4997342;28;20285;-45
2022/05/13 09:35:51;;;;;;;7.37;2.40;;;18.60;99.90;;;;;;4997251;28;20182;-45
2022/05/13 09:38:21;;;;;;;4.67;1.50;;;18.70;99.90;;;;;;4996931;28;20209;-46
2022/05/13 09:41:05;;;;;;;4.03;1.50;;;18.90;99.90;;;;;;4997343;28;20171;-46
2022/05/13 09:43:55;;;;;;;2.47;1.07;;;19.00;99.90;;;;;;4996784;28;20257;-46
2022/05/13 09:46:30;;;;;;;4.17;1.20;;;19.10;99.90;;;;;;4996811;28;20739;-45
2022/05/13 09:49:06;;;;;;;4.50;1.20;;;19.20;99.90;;;;;;4995449;28;20221;-47
2022/05/13 09:51:36;;;;;;;4.37;1.10;;;19.20;99.90;;;;;;4996704;28;20166;-47
2022/05/13 09:54:05;;;;;;;3.00;0.93;;;19.20;99.90;;;;;;4996944;28;20232;-45
2022/05/13 09:57:02;;;;;;;2.73;0.90;;;19.20;99.90;;;;;;4995130;28;20197;-45
2022/05/13 09:59:28;;;;;;;4.70;1.03;;;19.30;99.90;;;;;;4997244;28;20183;-47
2022/05/13 10:01:53;;;;;;;3.10;1.23;;;19.50;99.90;;;;;;4996597;28;20635;-46
2022/05/13 10:04:23;;;;;;;4.83;1.37;;;19.60;99.90;;;;;;4996406;28;20174;-47
2022/05/13 10:07:01;;;;;;;4.07;0.97;;;19.60;99.90;;;;;;4996539;28;20213;-46
2022/05/13 10:15:40;;;;;;;1.77;1.10;;;19.90;99.90;;;;;;4996845;28;20638;-46
2022/05/13 10:18:22;;;;;;;2.77;0.97;;;19.80;99.90;;;;;;4996478;28;20209;-46
2022/05/13 10:20:51;;;;;;;3.20;1.00;;;19.80;99.90;;;;;;4996144;28;20297;-45
2022/05/13 10:23:26;;;;;;;3.27;1.17;;;19.50;99.90;;;;;;4996648;28;20198;-46
2022/05/13 10:26:04;;;;;;;3.70;1.10;;;19.30;99.90;;;;;;4996309;28;20162;-46
2022/05/13 10:28:58;;;;;;;2.43;1.13;;;19.20;99.90;;;;;;4996199;28;20280;-48
2022/05/13 10:31:29;;;;;;;2.37;1.20;;;19.30;99.90;;;;;;4986735;28;20486;-46
2022/05/13 10:34:15;;;;;;;1.93;0.80;;;19.30;99.90;;;;;;4995848;28;20604;-47
2022/05/13 10:36:50;;;;;;;2.70;0.87;;;19.30;99.90;;;;;;4996043;28;20174;-46
2022/05/13 10:39:22;;;;;;;3.03;1.00;;;19.30;99.90;;;;;;4995751;28;20669;-46
2022/05/13 10:41:56;;;;;;;3.50;1.20;;;19.40;99.90;;;;;;4995829;28;20159;-46
2022/05/13 10:44:47;;;;;;;3.10;1.10;;;19.60;99.90;;;;;;4995940;28;20170;-47
2022/05/13 10:47:21;;;;;;;5.33;1.07;;;19.60;99.90;;;;;;4996114;28;20225;-46
2022/05/13 10:49:47;;;;;;;3.23;1.10;;;19.70;99.90;;;;;;4995642;28;20171;-46
2022/05/13 10:52:40;;;;;;;5.97;1.13;;;19.80;99.90;;;;;;4995523;28;20546;-46
2022/05/13 10:55:31;;;;;;;2.10;1.17;;;19.90;99.90;;;;;;4995576;28;20645;-44
2022/05/13 10:58:18;;;;;;;7.67;1.53;;;20.00;99.90;;;;;;4995279;28;20681;-45
2022/05/13 11:01:02;;;;;;;3.37;1.07;;;20.00;99.90;;;;;;4994526;28;20173;-47
2022/05/13 11:03:58;;;;;;;1.90;1.00;;;20.10;99.90;;;;;;4994273;28;20167;-46
2022/05/13 11:06:50;;;;;;;2.30;1.00;;;20.20;99.90;;;;;;4995544;28;20165;-45
2022/05/13 11:09:49;;;;;;;1.57;1.00;;;20.10;99.90;;;;;;4995469;28;20529;-44
2022/05/13 11:12:34;;;;;;;3.33;1.10;;;20.20;99.90;;;;;;4995472;28;20510;-45
2022/05/13 11:15:08;;;;;;;2.60;0.80;;;20.10;99.90;;;;;;4995325;28;20170;-46
2022/05/13 11:17:37;;;;;;;4.17;1.27;;;20.10;99.90;;;;;;4993642;28;20210;-48
2022/05/13 11:20:28;;;;;;;4.33;1.30;;;20.10;99.90;;;;;;4995048;28;20174;-48
2022/05/13 11:23:00;;;;;;;3.43;0.90;;;20.10;99.90;;;;;;4995809;28;20173;-46
2022/05/13 11:28:38;;;;;;;2.77;1.00;;;20.40;99.90;;;;;;4994776;28;20293;-46
2022/05/13 11:31:25;;;;;;;3.47;0.97;;;20.50;99.90;;;;;;4995411;28;20170;-46
2022/05/13 11:33:58;;;;;;;4.67;0.90;;;20.50;99.90;;;;;;4994605;28;20186;-46
2022/05/13 11:36:42;;;;;;;2.73;1.10;;;20.50;99.90;;;;;;4995058;28;20191;-46
2022/05/13 11:39:46;;;;;;;3.50;1.60;;;20.50;99.90;;;;;;4994871;28;20206;-47
2022/05/13 11:42:37;;;;;;;2.80;1.10;;;20.50;99.90;;;;;;4995089;28;20155;-45
2022/05/13 11:45:13;;;;;;;3.73;1.20;;;20.80;99.90;;;;;;4994018;28;20173;-48
2022/05/13 11:48:18;;;;;;;2.23;0.80;;;20.70;99.90;;;;;;4994741;28;20285;-47
2022/05/13 11:50:44;;;;;;;3.03;1.00;;;20.70;99.90;;;;;;4994733;28;20700;-47
2022/05/13 11:53:09;;;;;;;2.50;0.93;;;20.60;99.90;;;;;;4995543;28;20174;-46
2022/05/13 11:55:41;;;;;;;2.13;0.80;;;20.40;99.90;;;;;;4994458;28;20189;-46
2022/05/13 11:58:08;;;;;;;2.17;1.00;;;20.40;99.90;;;;;;4995065;28;20210;-47
2022/05/13 12:00:37;;;;;;;4.23;1.17;;;20.50;99.90;;;;;;4994574;28;20175;-45
2022/05/13 12:03:09;;;;;;;4.10;1.20;;;20.40;99.90;;;;;;4994686;28;20228;-45
2022/05/13 12:05:48;;;;;;;2.50;0.97;;;20.40;99.90;;;;;;4994316;28;20646;-47
2022/05/13 12:08:21;;;;;;;4.43;1.33;;;20.50;99.90;;;;;;4994217;28;20193;-47
2022/05/13 12:11:02;;;;;;;3.50;1.97;;;20.50;99.90;;;;;;4994551;28;20163;-46
2022/05/13 12:13:48;;;;;;;5.17;1.30;;;20.60;99.90;;;;;;4994424;28;20197;-48
2022/05/13 12:16:27;;;;;;;5.33;1.10;;;20.80;99.90;;;;;;4994203;28;20685;-47
2022/05/13 12:19:17;;;;;;;3.43;1.10;;;20.90;99.90;;;;;;4994271;28;20214;-48
2022/05/13 12:21:59;;;;;;;4.30;0.90;;;21.10;99.90;;;;;;4994151;28;20179;-48
2022/05/13 12:24:25;;;;;;;1.63;0.93;;;21.20;99.90;;;;;;4992856;28;20170;-47
2022/05/13 12:26:51;;;;;;;2.30;0.87;;;21.30;99.90;;;;;;4994254;28;20210;-47
2022/05/13 12:29:40;;;;;;;3.80;1.10;;;21.40;99.90;;;;;;4994001;28;20637;-48
2022/05/13 12:32:15;;;;;;;3.63;1.13;;;21.50;99.90;;;;;;4993937;28;20170;-48
2022/05/13 12:37:48;;;;;;;2.00;0.90;;;21.70;99.90;;;;;;4994245;28;20738;-45
2022/05/13 12:40:40;;;;;;;5.27;1.47;;;21.70;99.90;;;;;;4994376;28;20162;-47
2022/05/13 12:43:20;;;;;;;2.90;1.83;;;21.50;99.90;;;;;;4993850;28;20677;-45
2022/05/13 12:46:19;;;;;;;2.50;1.10;;;21.30;99.90;;;;;;4993002;28;20170;-47
2022/05/13 12:49:02;;;;;;;5.83;1.20;;;21.00;99.90;;;;;;4993852;28;20237;-46
2022/05/13 12:51:59;;;;;;;2.80;1.10;;;20.90;99.90;;;;;;4994077;28;20579;-46
2022/05/13 12:54:27;;;;;;;4.97;1.17;;;20.90;99.90;;;;;;4991334;28;20198;-47
2022/05/13 12:57:06;;;;;;;3.90;0.93;;;21.00;99.90;;;;;;4997023;28;20221;-46
2022/05/13 12:59:38;;;;;;;2.80;1.10;;;21.10;99.90;;;;;;4998312;28;20179;-46
2022/05/13 13:02:06;;;;;;;5.27;1.17;;;21.30;99.90;;;;;;4997855;28;20194;-48
2022/05/13 13:04:38;;;;;;;2.87;0.97;;;21.50;99.90;;;;;;4997765;28;20190;-47
2022/05/13 13:07:09;;;;;;;4.10;1.30;;;21.70;99.90;;;;;;4997911;28;20198;-46
2022/05/13 13:09:45;;;;;;;3.17;1.07;;;21.80;99.90;;;;;;4997793;28;20175;-47
2022/05/13 13:12:29;;;;;;;3.30;1.20;;;21.80;99.90;;;;;;4996199;28;20181;-48
2022/05/13 13:15:00;;;;;;;6.73;1.03;;;21.90;99.90;;;;;;4997372;28;20170;-47
2022/05/13 13:17:57;;;;;;;6.07;1.30;;;21.90;99.90;;;;;;4997157;28;20236;-47
2022/05/13 13:20:25;;;;;;;5.57;1.50;;;22.00;99.90;;;;;;4992660;28;20194;-48
2022/05/13 13:22:55;;;;;;;2.67;1.20;;;22.00;99.90;;;;;;4997397;28;20673;-47
2022/05/13 13:25:51;;;;;;;5.30;1.00;;;22.00;99.90;;;;;;4997328;28;20273;-47
2022/05/13 13:28:25;;;;;;;3.23;1.10;;;21.90;99.90;;;;;;4993714;28;20293;-47
2022/05/13 13:31:02;;;;;;;4.13;0.93;;;21.90;99.90;;;;;;4997010;28;20169;-48
2022/05/13 13:33:33;;;;;;;2.30;0.97;;;22.10;99.90;;;;;;4995750;28;20213;-47
2022/05/13 13:36:11;;;;;;;3.23;1.00;;;22.10;99.90;;;;;;4997032;28;20178;-47
2022/05/13 13:38:39;;;;;;;3.67;1.43;;;22.00;99.90;;;;;;4996739;28;20221;-47
2022/05/13 13:41:05;;;;;;;4.53;1.20;;;22.20;99.90;;;;;;4997063;28;20217;-47
2022/05/13 13:43:34;;;;;;;3.30;0.90;;;22.20;99.90;;;;;;4997109;28;20217;-46
2022/05/13 13:46:10;;;;;;;4.03;1.10;;;22.30;99.90;;;;;;4997051;28;20598;-47